WELCOME TO TCFT

Voted One Of The Best Flight Schools In The USA

 

 

Learn More

BECOME AN AIRLINE PILOT

Treasure Coast Flight Training is committed to serving all of your aviation needs as a full service flight academy, aircraft rental facility, and pilot shop

Contact Us

Questions About Becoming An Airline Pilot?

Get Started

 

 

What Our Graduates Say

 

 

The training I received with Treasure Coast Flight Training prepared me to become a professional pilot

 

Nathan Meisner

Pilot - Cessna Caravan - USA

Professional yet relaxed environment. Truly an enjoyable experience to fly with TCFT

 

Sophia

Certified Flight Instructor - China

The training I needed to get me to where I am now!

 

Enderson Rafael

Pilot - Go Airlines - Brazil

Thank you TCFT for making me an airline pilot!

 

Kyle Barrett

Pilot - GoJet Airlines - USA

Current Conditions

 

Metar

 

KSUA 020335Z AUTO 15005KT 10SM CLR 28/25 A3010 RMK AO2 LTG DSNT NE AND SW

 

TAF

 

TAF KSUA 020001Z 0200/0224 18004KT P6SM BKN100 TEMPO 0201/0203 5SM SHRA BKN040 FM020600 VRB02KT P6SM BKN250 FM021700 14010KT P6SM BKN040 FM021900 22008KT P6SM VCTS SCT020CB BKN040

 

 

Look No Further. Get Started Today

 

 

Enroll Now